sensor_id;sensor_type;location;lat;lon;timestamp;temperature;humidity
3348;DHT22;1687;49.540;8.574;2023-03-26T00:01:07;10.50;78.50
3348;DHT22;1687;49.540;8.574;2023-03-26T00:03:35;10.60;78.60
3348;DHT22;1687;49.540;8.574;2023-03-26T00:06:13;10.70;78.50
3348;DHT22;1687;49.540;8.574;2023-03-26T00:08:41;10.60;78.10
3348;DHT22;1687;49.540;8.574;2023-03-26T00:11:10;10.60;78.30
3348;DHT22;1687;49.540;8.574;2023-03-26T00:13:37;10.60;78.20
3348;DHT22;1687;49.540;8.574;2023-03-26T00:16:04;10.70;78.60
3348;DHT22;1687;49.540;8.574;2023-03-26T00:18:30;10.60;78.20
3348;DHT22;1687;49.540;8.574;2023-03-26T00:21:01;10.60;78.20
3348;DHT22;1687;49.540;8.574;2023-03-26T00:23:30;10.60;78.40
3348;DHT22;1687;49.540;8.574;2023-03-26T00:25:57;10.50;77.90
3348;DHT22;1687;49.540;8.574;2023-03-26T00:28:25;10.50;78.20
3348;DHT22;1687;49.540;8.574;2023-03-26T00:31:03;10.50;78.30
3348;DHT22;1687;49.540;8.574;2023-03-26T00:33:31;10.50;78.30
3348;DHT22;1687;49.540;8.574;2023-03-26T00:35:59;10.50;78.40
3348;DHT22;1687;49.540;8.574;2023-03-26T00:38:26;10.50;78.10
3348;DHT22;1687;49.540;8.574;2023-03-26T00:40:53;10.40;78.00
3348;DHT22;1687;49.540;8.574;2023-03-26T00:43:21;10.40;78.30
3348;DHT22;1687;49.540;8.574;2023-03-26T00:45:52;10.40;78.50
3348;DHT22;1687;49.540;8.574;2023-03-26T00:48:20;10.50;78.30
3348;DHT22;1687;49.540;8.574;2023-03-26T00:50:48;10.40;78.20
3348;DHT22;1687;49.540;8.574;2023-03-26T00:53:16;10.50;78.90
3348;DHT22;1687;49.540;8.574;2023-03-26T00:55:44;10.50;78.40
3348;DHT22;1687;49.540;8.574;2023-03-26T00:58:11;10.50;78.40
3348;DHT22;1687;49.540;8.574;2023-03-26T01:00:46;10.50;78.80
3348;DHT22;1687;49.540;8.574;2023-03-26T01:03:16;10.50;78.90
3348;DHT22;1687;49.540;8.574;2023-03-26T01:11:05;10.50;79.10
3348;DHT22;1687;49.540;8.574;2023-03-26T01:13:43;10.50;79.10
3348;DHT22;1687;49.540;8.574;2023-03-26T01:18:53;10.40;78.90
3348;DHT22;1687;49.540;8.574;2023-03-26T01:21:24;10.40;79.00
3348;DHT22;1687;49.540;8.574;2023-03-26T01:24:05;10.40;79.20
3348;DHT22;1687;49.540;8.574;2023-03-26T01:26:45;10.40;79.10
3348;DHT22;1687;49.540;8.574;2023-03-26T01:29:29;10.40;79.50
3348;DHT22;1687;49.540;8.574;2023-03-26T01:44:05;10.40;79.40
3348;DHT22;1687;49.540;8.574;2023-03-26T01:46:33;10.40;79.90
3348;DHT22;1687;49.540;8.574;2023-03-26T01:49:05;10.40;79.80
3348;DHT22;1687;49.540;8.574;2023-03-26T01:51:38;10.50;79.80
3348;DHT22;1687;49.540;8.574;2023-03-26T01:54:09;10.40;79.50
3348;DHT22;1687;49.540;8.574;2023-03-26T01:57:05;10.50;79.90
3348;DHT22;1687;49.540;8.574;2023-03-26T02:02:54;10.50;80.20
3348;DHT22;1687;49.540;8.574;2023-03-26T02:06:06;10.50;79.90
3348;DHT22;1687;49.540;8.574;2023-03-26T02:08:45;10.60;80.00
3348;DHT22;1687;49.540;8.574;2023-03-26T02:11:16;10.60;80.30
3348;DHT22;1687;49.540;8.574;2023-03-26T02:13:44;10.60;80.00
3348;DHT22;1687;49.540;8.574;2023-03-26T02:16:13;10.60;79.70
3348;DHT22;1687;49.540;8.574;2023-03-26T02:18:44;10.50;79.70
3348;DHT22;1687;49.540;8.574;2023-03-26T02:21:15;10.50;79.80
3348;DHT22;1687;49.540;8.574;2023-03-26T02:23:48;10.60;80.30
3348;DHT22;1687;49.540;8.574;2023-03-26T02:26:16;10.60;80.40
3348;DHT22;1687;49.540;8.574;2023-03-26T02:28:43;10.70;80.30
3348;DHT22;1687;49.540;8.574;2023-03-26T02:31:09;10.60;80.50
3348;DHT22;1687;49.540;8.574;2023-03-26T02:33:38;10.60;80.10
3348;DHT22;1687;49.540;8.574;2023-03-26T02:36:04;10.60;80.20
3348;DHT22;1687;49.540;8.574;2023-03-26T02:38:31;10.60;80.20
3348;DHT22;1687;49.540;8.574;2023-03-26T02:41:01;10.50;80.00
3348;DHT22;1687;49.540;8.574;2023-03-26T02:43:27;10.50;80.30
3348;DHT22;1687;49.540;8.574;2023-03-26T02:45:53;10.60;80.70
3348;DHT22;1687;49.540;8.574;2023-03-26T02:48:19;10.60;80.30
3348;DHT22;1687;49.540;8.574;2023-03-26T02:50:45;10.60;80.30
3348;DHT22;1687;49.540;8.574;2023-03-26T02:53:14;10.60;80.40
3348;DHT22;1687;49.540;8.574;2023-03-26T02:55:41;10.60;80.60
3348;DHT22;1687;49.540;8.574;2023-03-26T02:58:07;10.70;80.70
3348;DHT22;1687;49.540;8.574;2023-03-26T03:00:33;10.70;80.80
3348;DHT22;1687;49.540;8.574;2023-03-26T03:03:00;10.70;80.60
3348;DHT22;1687;49.540;8.574;2023-03-26T03:05:29;10.70;80.90
3348;DHT22;1687;49.540;8.574;2023-03-26T03:07:56;10.80;80.90
3348;DHT22;1687;49.540;8.574;2023-03-26T03:10:26;10.80;80.60
3348;DHT22;1687;49.540;8.574;2023-03-26T03:12:53;10.80;80.90
3348;DHT22;1687;49.540;8.574;2023-03-26T03:15:19;10.80;80.60
3348;DHT22;1687;49.540;8.574;2023-03-26T03:17:45;10.70;80.10
3348;DHT22;1687;49.540;8.574;2023-03-26T03:20:12;10.70;80.20
3348;DHT22;1687;49.540;8.574;2023-03-26T03:22:38;10.60;80.20
3348;DHT22;1687;49.540;8.574;2023-03-26T03:25:04;10.60;80.40
3348;DHT22;1687;49.540;8.574;2023-03-26T03:27:33;10.60;80.70
3348;DHT22;1687;49.540;8.574;2023-03-26T03:30:04;10.70;80.70
3348;DHT22;1687;49.540;8.574;2023-03-26T03:32:30;10.60;80.30
3348;DHT22;1687;49.540;8.574;2023-03-26T03:34:56;10.60;81.00
3348;DHT22;1687;49.540;8.574;2023-03-26T03:37:22;10.70;80.60
3348;DHT22;1687;49.540;8.574;2023-03-26T03:39:48;10.60;80.70
3348;DHT22;1687;49.540;8.574;2023-03-26T03:42:14;10.60;80.50
3348;DHT22;1687;49.540;8.574;2023-03-26T03:44:40;10.60;80.50
3348;DHT22;1687;49.540;8.574;2023-03-26T03:47:05;10.60;80.70
3348;DHT22;1687;49.540;8.574;2023-03-26T03:49:31;10.60;81.00
3348;DHT22;1687;49.540;8.574;2023-03-26T03:51:57;10.60;81.30
3348;DHT22;1687;49.540;8.574;2023-03-26T03:54:23;10.70;81.10
3348;DHT22;1687;49.540;8.574;2023-03-26T03:56:49;10.70;81.00
3348;DHT22;1687;49.540;8.574;2023-03-26T03:59:14;10.60;81.00
3348;DHT22;1687;49.540;8.574;2023-03-26T04:01:40;10.70;81.40
3348;DHT22;1687;49.540;8.574;2023-03-26T04:04:11;10.70;81.10
3348;DHT22;1687;49.540;8.574;2023-03-26T04:06:36;10.80;81.40
3348;DHT22;1687;49.540;8.574;2023-03-26T04:09:03;10.80;81.30
3348;DHT22;1687;49.540;8.574;2023-03-26T04:11:29;10.80;81.20
3348;DHT22;1687;49.540;8.574;2023-03-26T04:13:55;10.80;81.50
3348;DHT22;1687;49.540;8.574;2023-03-26T04:16:20;10.80;81.00
3348;DHT22;1687;49.540;8.574;2023-03-26T04:18:46;10.80;81.10
3348;DHT22;1687;49.540;8.574;2023-03-26T04:21:12;10.80;81.10
3348;DHT22;1687;49.540;8.574;2023-03-26T04:23:40;10.80;81.30
3348;DHT22;1687;49.540;8.574;2023-03-26T04:26:08;10.90;81.40
3348;DHT22;1687;49.540;8.574;2023-03-26T04:28:52;10.90;81.40
3348;DHT22;1687;49.540;8.574;2023-03-26T04:31:22;10.90;81.30
3348;DHT22;1687;49.540;8.574;2023-03-26T04:33:54;11.00;81.50
3348;DHT22;1687;49.540;8.574;2023-03-26T04:36:28;11.00;81.40
3348;DHT22;1687;49.540;8.574;2023-03-26T04:38:57;11.00;81.30
3348;DHT22;1687;49.540;8.574;2023-03-26T04:41:27;10.90;80.80
3348;DHT22;1687;49.540;8.574;2023-03-26T04:43:54;10.90;80.70
3348;DHT22;1687;49.540;8.574;2023-03-26T04:46:21;10.80;80.90
3348;DHT22;1687;49.540;8.574;2023-03-26T04:48:52;10.80;81.20
3348;DHT22;1687;49.540;8.574;2023-03-26T04:51:22;10.90;81.20
3348;DHT22;1687;49.540;8.574;2023-03-26T04:53:59;10.90;81.30
3348;DHT22;1687;49.540;8.574;2023-03-26T04:59:24;11.00;81.30
3348;DHT22;1687;49.540;8.574;2023-03-26T05:01:57;10.90;81.10
3348;DHT22;1687;49.540;8.574;2023-03-26T05:04:24;11.00;81.20
3348;DHT22;1687;49.540;8.574;2023-03-26T05:06:51;11.00;81.20
3348;DHT22;1687;49.540;8.574;2023-03-26T05:09:18;10.90;80.70
3348;DHT22;1687;49.540;8.574;2023-03-26T05:11:44;10.90;80.80
3348;DHT22;1687;49.540;8.574;2023-03-26T05:14:10;10.90;81.40
3348;DHT22;1687;49.540;8.574;2023-03-26T05:16:36;10.90;81.50
3348;DHT22;1687;49.540;8.574;2023-03-26T05:19:03;11.00;81.30
3348;DHT22;1687;49.540;8.574;2023-03-26T05:21:29;11.00;81.10
3348;DHT22;1687;49.540;8.574;2023-03-26T05:23:55;10.90;80.50
3348;DHT22;1687;49.540;8.574;2023-03-26T05:26:21;10.80;80.50
3348;DHT22;1687;49.540;8.574;2023-03-26T05:28:47;10.70;81.10
3348;DHT22;1687;49.540;8.574;2023-03-26T05:31:12;10.80;81.20
3348;DHT22;1687;49.540;8.574;2023-03-26T05:33:41;10.80;81.20
3348;DHT22;1687;49.540;8.574;2023-03-26T05:36:09;10.90;81.40
3348;DHT22;1687;49.540;8.574;2023-03-26T05:38:40;10.90;81.50
3348;DHT22;1687;49.540;8.574;2023-03-26T05:41:11;10.90;81.50
3348;DHT22;1687;49.540;8.574;2023-03-26T05:43:37;10.90;81.40
3348;DHT22;1687;49.540;8.574;2023-03-26T05:46:02;10.90;81.40
3348;DHT22;1687;49.540;8.574;2023-03-26T05:48:28;10.90;81.80
3348;DHT22;1687;49.540;8.574;2023-03-26T05:50:56;10.90;81.40
3348;DHT22;1687;49.540;8.574;2023-03-26T05:53:24;11.00;81.90
3348;DHT22;1687;49.540;8.574;2023-03-26T05:55:51;11.00;81.60
3348;DHT22;1687;49.540;8.574;2023-03-26T05:58:31;11.00;81.70
3348;DHT22;1687;49.540;8.574;2023-03-26T06:00:59;10.90;81.30
3348;DHT22;1687;49.540;8.574;2023-03-26T06:03:30;11.00;82.10
3348;DHT22;1687;49.540;8.574;2023-03-26T06:05:57;10.90;81.30
3348;DHT22;1687;49.540;8.574;2023-03-26T06:08:23;10.90;81.50
3348;DHT22;1687;49.540;8.574;2023-03-26T06:10:49;10.90;82.40
3348;DHT22;1687;49.540;8.574;2023-03-26T06:13:18;11.00;82.40
3348;DHT22;1687;49.540;8.574;2023-03-26T06:15:43;11.00;82.10
3348;DHT22;1687;49.540;8.574;2023-03-26T06:18:09;10.90;82.00
3348;DHT22;1687;49.540;8.574;2023-03-26T06:20:35;10.90;82.30
3348;DHT22;1687;49.540;8.574;2023-03-26T06:23:01;10.90;82.50
3348;DHT22;1687;49.540;8.574;2023-03-26T06:25:27;10.90;82.50
3348;DHT22;1687;49.540;8.574;2023-03-26T06:27:53;10.80;82.00
3348;DHT22;1687;49.540;8.574;2023-03-26T06:30:18;10.70;82.30
3348;DHT22;1687;49.540;8.574;2023-03-26T06:32:44;10.70;83.00
3348;DHT22;1687;49.540;8.574;2023-03-26T06:35:10;10.80;83.40
3348;DHT22;1687;49.540;8.574;2023-03-26T06:37:36;10.80;82.90
3348;DHT22;1687;49.540;8.574;2023-03-26T06:40:02;10.80;83.60
3348;DHT22;1687;49.540;8.574;2023-03-26T06:42:29;10.90;84.10
3348;DHT22;1687;49.540;8.574;2023-03-26T06:44:55;11.00;83.80
3348;DHT22;1687;49.540;8.574;2023-03-26T06:47:20;10.90;83.50
3348;DHT22;1687;49.540;8.574;2023-03-26T06:49:46;11.00;85.20
3348;DHT22;1687;49.540;8.574;2023-03-26T06:52:12;11.10;84.40
3348;DHT22;1687;49.540;8.574;2023-03-26T06:54:37;11.10;84.20
3348;DHT22;1687;49.540;8.574;2023-03-26T06:57:03;11.10;84.50
3348;DHT22;1687;49.540;8.574;2023-03-26T06:59:29;11.10;84.00
3348;DHT22;1687;49.540;8.574;2023-03-26T07:01:55;11.10;84.50
3348;DHT22;1687;49.540;8.574;2023-03-26T07:04:20;11.10;85.00
3348;DHT22;1687;49.540;8.574;2023-03-26T07:06:46;11.20;85.50
3348;DHT22;1687;49.540;8.574;2023-03-26T07:09:12;11.20;85.00
3348;DHT22;1687;49.540;8.574;2023-03-26T07:11:37;11.10;84.00
3348;DHT22;1687;49.540;8.574;2023-03-26T07:14:03;11.10;85.10
3348;DHT22;1687;49.540;8.574;2023-03-26T07:16:28;11.10;85.80
3348;DHT22;1687;49.540;8.574;2023-03-26T07:18:54;11.20;85.40
3348;DHT22;1687;49.540;8.574;2023-03-26T07:21:20;11.20;85.40
3348;DHT22;1687;49.540;8.574;2023-03-26T07:23:47;11.30;85.70
3348;DHT22;1687;49.540;8.574;2023-03-26T07:26:45;11.20;85.00
3348;DHT22;1687;49.540;8.574;2023-03-26T07:29:36;11.30;86.20
3348;DHT22;1687;49.540;8.574;2023-03-26T07:40:51;11.40;85.80
3348;DHT22;1687;49.540;8.574;2023-03-26T07:43:30;11.40;86.50
3348;DHT22;1687;49.540;8.574;2023-03-26T07:46:17;11.40;86.60
3348;DHT22;1687;49.540;8.574;2023-03-26T07:48:48;11.50;87.10
3348;DHT22;1687;49.540;8.574;2023-03-26T07:51:16;11.60;86.50
3348;DHT22;1687;49.540;8.574;2023-03-26T07:53:43;11.60;86.30
3348;DHT22;1687;49.540;8.574;2023-03-26T07:56:20;11.50;86.30
3348;DHT22;1687;49.540;8.574;2023-03-26T08:01:36;11.40;86.20
3348;DHT22;1687;49.540;8.574;2023-03-26T08:16:54;11.00;87.50
3348;DHT22;1687;49.540;8.574;2023-03-26T08:19:50;10.90;86.70
3348;DHT22;1687;49.540;8.574;2023-03-26T08:22:41;10.80;87.50
3348;DHT22;1687;49.540;8.574;2023-03-26T08:30:37;10.80;87.60
3348;DHT22;1687;49.540;8.574;2023-03-26T08:33:13;10.70;86.80
3348;DHT22;1687;49.540;8.574;2023-03-26T08:35:43;10.60;88.20
3348;DHT22;1687;49.540;8.574;2023-03-26T08:38:10;10.70;88.60
3348;DHT22;1687;49.540;8.574;2023-03-26T09:01:26;11.00;90.10
3348;DHT22;1687;49.540;8.574;2023-03-26T09:13:37;11.00;90.30
3348;DHT22;1687;49.540;8.574;2023-03-26T09:22:56;11.60;90.60
3348;DHT22;1687;49.540;8.574;2023-03-26T09:31:52;12.30;90.70
3348;DHT22;1687;49.540;8.574;2023-03-26T09:34:30;12.40;90.40
3348;DHT22;1687;49.540;8.574;2023-03-26T09:37:10;12.50;90.50
3348;DHT22;1687;49.540;8.574;2023-03-26T09:40:12;12.30;89.50
3348;DHT22;1687;49.540;8.574;2023-03-26T09:49:07;12.10;90.30
3348;DHT22;1687;49.540;8.574;2023-03-26T09:55:29;12.20;90.20
3348;DHT22;1687;49.540;8.574;2023-03-26T09:58:20;12.20;90.10
3348;DHT22;1687;49.540;8.574;2023-03-26T10:00:51;12.40;90.30
3348;DHT22;1687;49.540;8.574;2023-03-26T10:10:03;12.50;89.90
3348;DHT22;1687;49.540;8.574;2023-03-26T10:16:25;12.80;89.60
3348;DHT22;1687;49.540;8.574;2023-03-26T10:18:58;13.00;89.50
3348;DHT22;1687;49.540;8.574;2023-03-26T10:22:25;13.10;89.50
3348;DHT22;1687;49.540;8.574;2023-03-26T10:28:41;13.50;89.90
3348;DHT22;1687;49.540;8.574;2023-03-26T10:43:07;13.70;88.50
3348;DHT22;1687;49.540;8.574;2023-03-26T10:46:19;13.70;87.50
3348;DHT22;1687;49.540;8.574;2023-03-26T10:51:58;13.50;88.20
3348;DHT22;1687;49.540;8.574;2023-03-26T10:57:34;13.10;86.40
3348;DHT22;1687;49.540;8.574;2023-03-26T11:00:20;13.00;87.20
3348;DHT22;1687;49.540;8.574;2023-03-26T11:09:02;13.00;86.70
3348;DHT22;1687;49.540;8.574;2023-03-26T11:14:40;12.80;87.50
3348;DHT22;1687;49.540;8.574;2023-03-26T11:20:40;13.40;89.70
3348;DHT22;1687;49.540;8.574;2023-03-26T11:26:13;13.90;88.40
3348;DHT22;1687;49.540;8.574;2023-03-26T11:31:54;14.30;89.00
3348;DHT22;1687;49.540;8.574;2023-03-26T11:34:29;14.40;88.80
3348;DHT22;1687;49.540;8.574;2023-03-26T11:37:04;14.50;88.70
3348;DHT22;1687;49.540;8.574;2023-03-26T11:39:43;14.80;89.80
3348;DHT22;1687;49.540;8.574;2023-03-26T11:42:14;15.00;89.10
3348;DHT22;1687;49.540;8.574;2023-03-26T11:45:04;15.20;88.80
3348;DHT22;1687;49.540;8.574;2023-03-26T11:47:36;15.30;87.70
3348;DHT22;1687;49.540;8.574;2023-03-26T11:50:07;15.20;87.50
3348;DHT22;1687;49.540;8.574;2023-03-26T11:52:38;15.20;87.70
3348;DHT22;1687;49.540;8.574;2023-03-26T11:55:04;15.10;86.70
3348;DHT22;1687;49.540;8.574;2023-03-26T11:57:33;14.90;85.50
3348;DHT22;1687;49.540;8.574;2023-03-26T12:00:06;14.80;85.80
3348;DHT22;1687;49.540;8.574;2023-03-26T12:02:44;14.60;83.90
3348;DHT22;1687;49.540;8.574;2023-03-26T12:05:23;14.30;83.00
3348;DHT22;1687;49.540;8.574;2023-03-26T12:07:58;14.00;82.60
3348;DHT22;1687;49.540;8.574;2023-03-26T12:10:27;13.60;81.80
3348;DHT22;1687;49.540;8.574;2023-03-26T12:13:27;13.40;81.70
3348;DHT22;1687;49.540;8.574;2023-03-26T12:18:36;13.20;82.70
3348;DHT22;1687;49.540;8.574;2023-03-26T12:21:05;13.20;82.90
3348;DHT22;1687;49.540;8.574;2023-03-26T12:26:17;13.20;82.90
3348;DHT22;1687;49.540;8.574;2023-03-26T12:28:49;13.30;83.80
3348;DHT22;1687;49.540;8.574;2023-03-26T12:31:16;13.50;83.70
3348;DHT22;1687;49.540;8.574;2023-03-26T12:33:44;13.60;83.80
3348;DHT22;1687;49.540;8.574;2023-03-26T12:36:24;13.80;84.70
3348;DHT22;1687;49.540;8.574;2023-03-26T12:38:53;14.10;84.10
3348;DHT22;1687;49.540;8.574;2023-03-26T12:41:29;14.30;84.00
3348;DHT22;1687;49.540;8.574;2023-03-26T12:44:21;14.50;83.60
3348;DHT22;1687;49.540;8.574;2023-03-26T12:47:18;14.70;83.10
3348;DHT22;1687;49.540;8.574;2023-03-26T12:49:52;14.90;82.70
3348;DHT22;1687;49.540;8.574;2023-03-26T12:53:06;15.20;82.70
3348;DHT22;1687;49.540;8.574;2023-03-26T13:02:00;15.50;80.70
3348;DHT22;1687;49.540;8.574;2023-03-26T13:16:34;15.50;77.20
3348;DHT22;1687;49.540;8.574;2023-03-26T13:19:23;15.40;76.90
3348;DHT22;1687;49.540;8.574;2023-03-26T13:28:04;15.50;75.70
3348;DHT22;1687;49.540;8.574;2023-03-26T13:34:03;16.20;75.50
3348;DHT22;1687;49.540;8.574;2023-03-26T13:39:36;16.30;73.60
3348;DHT22;1687;49.540;8.574;2023-03-26T13:44:58;16.40;73.00
3348;DHT22;1687;49.540;8.574;2023-03-26T13:47:57;16.30;72.20
3348;DHT22;1687;49.540;8.574;2023-03-26T13:50:26;16.10;71.10
3348;DHT22;1687;49.540;8.574;2023-03-26T13:52:59;15.90;70.90
3348;DHT22;1687;49.540;8.574;2023-03-26T13:55:43;15.80;71.20
3348;DHT22;1687;49.540;8.574;2023-03-26T14:00:58;15.80;70.30
3348;DHT22;1687;49.540;8.574;2023-03-26T14:03:32;15.60;69.60
3348;DHT22;1687;49.540;8.574;2023-03-26T14:09:57;15.30;69.00
3348;DHT22;1687;49.540;8.574;2023-03-26T14:12:55;15.20;68.40
3348;DHT22;1687;49.540;8.574;2023-03-26T14:15:28;15.10;68.00
3348;DHT22;1687;49.540;8.574;2023-03-26T14:28:23;15.00;66.90
3348;DHT22;1687;49.540;8.574;2023-03-26T14:34:21;15.10;66.30
3348;DHT22;1687;49.540;8.574;2023-03-26T14:52:17;14.90;64.80
3348;DHT22;1687;49.540;8.574;2023-03-26T14:54:52;14.70;64.40
3348;DHT22;1687;49.540;8.574;2023-03-26T15:10:47;14.00;63.80
3348;DHT22;1687;49.540;8.574;2023-03-26T15:13:44;13.90;64.00
3348;DHT22;1687;49.540;8.574;2023-03-26T15:16:33;13.80;64.20
3348;DHT22;1687;49.540;8.574;2023-03-26T15:32:15;13.20;64.00
3348;DHT22;1687;49.540;8.574;2023-03-26T15:34:56;13.00;63.70
3348;DHT22;1687;49.540;8.574;2023-03-26T15:38:20;12.80;64.00
3348;DHT22;1687;49.540;8.574;2023-03-26T15:51:49;12.70;64.80
3348;DHT22;1687;49.540;8.574;2023-03-26T15:54:49;12.70;64.60
3348;DHT22;1687;49.540;8.574;2023-03-26T15:57:36;12.60;64.80
3348;DHT22;1687;49.540;8.574;2023-03-26T16:00:23;12.50;64.70
3348;DHT22;1687;49.540;8.574;2023-03-26T16:11:56;12.30;65.50
3348;DHT22;1687;49.540;8.574;2023-03-26T16:20:49;12.00;65.20
3348;DHT22;1687;49.540;8.574;2023-03-26T16:23:35;11.90;65.60
3348;DHT22;1687;49.540;8.574;2023-03-26T16:29:26;11.80;66.10
3348;DHT22;1687;49.540;8.574;2023-03-26T16:32:15;11.70;66.20
3348;DHT22;1687;49.540;8.574;2023-03-26T16:37:42;11.60;66.30
3348;DHT22;1687;49.540;8.574;2023-03-26T16:40:34;11.60;66.40
3348;DHT22;1687;49.540;8.574;2023-03-26T17:03:53;11.60;67.80
3348;DHT22;1687;49.540;8.574;2023-03-26T17:12:50;11.50;68.00
3348;DHT22;1687;49.540;8.574;2023-03-26T17:18:42;11.40;68.30
3348;DHT22;1687;49.540;8.574;2023-03-26T17:21:43;11.40;68.20
3348;DHT22;1687;49.540;8.574;2023-03-26T17:27:38;11.40;68.70
3348;DHT22;1687;49.540;8.574;2023-03-26T17:35:41;11.30;68.90
3348;DHT22;1687;49.540;8.574;2023-03-26T17:40:51;11.30;69.00
3348;DHT22;1687;49.540;8.574;2023-03-26T17:43:44;11.30;69.30
3348;DHT22;1687;49.540;8.574;2023-03-26T17:46:37;11.30;69.20
3348;DHT22;1687;49.540;8.574;2023-03-26T17:49:25;11.30;69.60
3348;DHT22;1687;49.540;8.574;2023-03-26T17:51:59;11.40;70.70
3348;DHT22;1687;49.540;8.574;2023-03-26T17:54:33;11.30;69.30
3348;DHT22;1687;49.540;8.574;2023-03-26T17:57:04;11.40;70.10
3348;DHT22;1687;49.540;8.574;2023-03-26T17:59:40;11.40;69.60
3348;DHT22;1687;49.540;8.574;2023-03-26T18:02:13;11.30;69.80
3348;DHT22;1687;49.540;8.574;2023-03-26T18:04:42;11.30;69.80
3348;DHT22;1687;49.540;8.574;2023-03-26T18:16:31;11.30;70.00
3348;DHT22;1687;49.540;8.574;2023-03-26T18:19:09;11.20;70.10
3348;DHT22;1687;49.540;8.574;2023-03-26T18:21:45;11.10;70.10
3348;DHT22;1687;49.540;8.574;2023-03-26T18:24:21;11.10;70.30
3348;DHT22;1687;49.540;8.574;2023-03-26T18:27:08;11.00;70.20
3348;DHT22;1687;49.540;8.574;2023-03-26T18:29:36;10.90;70.30
3348;DHT22;1687;49.540;8.574;2023-03-26T18:34:39;10.80;70.50
3348;DHT22;1687;49.540;8.574;2023-03-26T18:37:19;10.80;70.70
3348;DHT22;1687;49.540;8.574;2023-03-26T18:40:07;10.80;71.00
3348;DHT22;1687;49.540;8.574;2023-03-26T18:42:40;10.90;70.90
3348;DHT22;1687;49.540;8.574;2023-03-26T18:47:47;10.80;71.20
3348;DHT22;1687;49.540;8.574;2023-03-26T18:50:22;10.80;71.00
3348;DHT22;1687;49.540;8.574;2023-03-26T18:52:52;10.80;71.20
3348;DHT22;1687;49.540;8.574;2023-03-26T18:55:20;10.80;71.60
3348;DHT22;1687;49.540;8.574;2023-03-26T18:57:49;10.90;71.70
3348;DHT22;1687;49.540;8.574;2023-03-26T19:00:20;10.90;71.60
3348;DHT22;1687;49.540;8.574;2023-03-26T19:02:50;10.90;71.50
3348;DHT22;1687;49.540;8.574;2023-03-26T19:05:19;10.90;71.70
3348;DHT22;1687;49.540;8.574;2023-03-26T19:07:46;10.90;71.40
3348;DHT22;1687;49.540;8.574;2023-03-26T19:10:18;10.80;71.70
3348;DHT22;1687;49.540;8.574;2023-03-26T19:12:54;10.90;71.90
3348;DHT22;1687;49.540;8.574;2023-03-26T19:15:22;10.90;72.00
3348;DHT22;1687;49.540;8.574;2023-03-26T19:17:55;11.00;72.50
3348;DHT22;1687;49.540;8.574;2023-03-26T19:20:38;11.10;72.60
3348;DHT22;1687;49.540;8.574;2023-03-26T19:23:07;11.10;72.70
3348;DHT22;1687;49.540;8.574;2023-03-26T19:25:42;11.20;72.80
3348;DHT22;1687;49.540;8.574;2023-03-26T19:28:18;11.20;72.60
3348;DHT22;1687;49.540;8.574;2023-03-26T19:30:44;11.20;72.60
3348;DHT22;1687;49.540;8.574;2023-03-26T19:33:15;11.20;72.70
3348;DHT22;1687;49.540;8.574;2023-03-26T19:35:44;11.10;72.70
3348;DHT22;1687;49.540;8.574;2023-03-26T19:38:41;11.10;72.50
3348;DHT22;1687;49.540;8.574;2023-03-26T19:41:32;11.00;72.40
3348;DHT22;1687;49.540;8.574;2023-03-26T19:44:02;10.90;72.60
3348;DHT22;1687;49.540;8.574;2023-03-26T19:46:34;10.70;72.50
3348;DHT22;1687;49.540;8.574;2023-03-26T19:49:00;10.60;72.50
3348;DHT22;1687;49.540;8.574;2023-03-26T19:51:33;10.40;72.70
3348;DHT22;1687;49.540;8.574;2023-03-26T19:54:03;10.40;73.00
3348;DHT22;1687;49.540;8.574;2023-03-26T19:56:36;10.30;73.00
3348;DHT22;1687;49.540;8.574;2023-03-26T19:59:02;10.20;73.00
3348;DHT22;1687;49.540;8.574;2023-03-26T20:01:29;10.20;73.30
3348;DHT22;1687;49.540;8.574;2023-03-26T20:03:59;10.10;73.50
3348;DHT22;1687;49.540;8.574;2023-03-26T20:06:28;10.20;74.20
3348;DHT22;1687;49.540;8.574;2023-03-26T20:08:54;10.20;74.00
3348;DHT22;1687;49.540;8.574;2023-03-26T20:11:22;10.20;74.20
3348;DHT22;1687;49.540;8.574;2023-03-26T20:13:50;10.10;74.10
3348;DHT22;1687;49.540;8.574;2023-03-26T20:16:30;10.10;74.70
3348;DHT22;1687;49.540;8.574;2023-03-26T20:18:57;10.10;74.70
3348;DHT22;1687;49.540;8.574;2023-03-26T20:21:27;10.10;75.10
3348;DHT22;1687;49.540;8.574;2023-03-26T20:23:54;10.30;75.60
3348;DHT22;1687;49.540;8.574;2023-03-26T20:26:21;10.20;75.10
3348;DHT22;1687;49.540;8.574;2023-03-26T20:28:47;10.10;74.60
3348;DHT22;1687;49.540;8.574;2023-03-26T20:31:18;9.90;76.20
3348;DHT22;1687;49.540;8.574;2023-03-26T20:33:47;9.90;76.70
3348;DHT22;1687;49.540;8.574;2023-03-26T20:36:16;9.80;76.80
3348;DHT22;1687;49.540;8.574;2023-03-26T20:38:44;9.80;77.20
3348;DHT22;1687;49.540;8.574;2023-03-26T20:41:20;9.80;77.10
3348;DHT22;1687;49.540;8.574;2023-03-26T20:43:47;9.70;77.40
3348;DHT22;1687;49.540;8.574;2023-03-26T20:46:22;9.70;77.60
3348;DHT22;1687;49.540;8.574;2023-03-26T20:48:49;9.70;77.70
3348;DHT22;1687;49.540;8.574;2023-03-26T20:51:16;9.60;77.60
3348;DHT22;1687;49.540;8.574;2023-03-26T20:53:45;9.60;78.80
3348;DHT22;1687;49.540;8.574;2023-03-26T20:56:18;9.60;78.50
3348;DHT22;1687;49.540;8.574;2023-03-26T20:58:46;9.70;78.50
3348;DHT22;1687;49.540;8.574;2023-03-26T21:01:14;9.70;78.90
3348;DHT22;1687;49.540;8.574;2023-03-26T21:03:41;9.80;79.00
3348;DHT22;1687;49.540;8.574;2023-03-26T21:06:11;9.70;78.70
3348;DHT22;1687;49.540;8.574;2023-03-26T21:08:41;9.70;79.10
3348;DHT22;1687;49.540;8.574;2023-03-26T21:16:22;9.60;79.80
3348;DHT22;1687;49.540;8.574;2023-03-26T21:18:48;9.70;80.80
3348;DHT22;1687;49.540;8.574;2023-03-26T21:21:37;9.90;80.40
3348;DHT22;1687;49.540;8.574;2023-03-26T21:24:30;9.80;79.90
3348;DHT22;1687;49.540;8.574;2023-03-26T21:30:12;9.80;80.50
3348;DHT22;1687;49.540;8.574;2023-03-26T21:32:41;9.70;80.70
3348;DHT22;1687;49.540;8.574;2023-03-26T21:35:13;9.80;81.50
3348;DHT22;1687;49.540;8.574;2023-03-26T21:37:44;9.80;81.00
3348;DHT22;1687;49.540;8.574;2023-03-26T21:40:14;9.80;81.50
3348;DHT22;1687;49.540;8.574;2023-03-26T21:42:45;9.70;81.20
3348;DHT22;1687;49.540;8.574;2023-03-26T21:45:13;9.80;82.00
3348;DHT22;1687;49.540;8.574;2023-03-26T21:47:40;9.80;81.90
3348;DHT22;1687;49.540;8.574;2023-03-26T21:50:07;9.80;82.00
3348;DHT22;1687;49.540;8.574;2023-03-26T21:52:34;9.80;82.40
3348;DHT22;1687;49.540;8.574;2023-03-26T21:55:01;9.80;82.00
3348;DHT22;1687;49.540;8.574;2023-03-26T21:57:34;9.80;82.80
3348;DHT22;1687;49.540;8.574;2023-03-26T22:00:16;9.80;82.70
3348;DHT22;1687;49.540;8.574;2023-03-26T22:08:41;9.50;82.50
3348;DHT22;1687;49.540;8.574;2023-03-26T22:11:09;9.30;82.80
3348;DHT22;1687;49.540;8.574;2023-03-26T22:13:36;9.20;83.70
3348;DHT22;1687;49.540;8.574;2023-03-26T22:16:03;9.20;84.00
3348;DHT22;1687;49.540;8.574;2023-03-26T22:18:31;9.20;84.40
3348;DHT22;1687;49.540;8.574;2023-03-26T22:20:57;9.20;84.70
3348;DHT22;1687;49.540;8.574;2023-03-26T22:23:25;9.20;85.50
3348;DHT22;1687;49.540;8.574;2023-03-26T22:25:51;9.10;85.50
3348;DHT22;1687;49.540;8.574;2023-03-26T22:28:17;9.10;86.20
3348;DHT22;1687;49.540;8.574;2023-03-26T22:30:44;9.10;87.10
3348;DHT22;1687;49.540;8.574;2023-03-26T22:33:10;9.10;87.20
3348;DHT22;1687;49.540;8.574;2023-03-26T22:35:37;9.10;88.60
3348;DHT22;1687;49.540;8.574;2023-03-26T22:38:04;9.10;88.80
3348;DHT22;1687;49.540;8.574;2023-03-26T22:40:29;9.00;88.60
3348;DHT22;1687;49.540;8.574;2023-03-26T22:42:55;9.00;89.40